Time;durP1;ratioP1;P1;durP2;ratioP2;P2;SDS_P1;SDS_P2;PMS_P1;PMS_P2;Temp;Humidity;BMP_temperature;BMP_pressure;BME280_temperature;BME280_humidity;BME280_pressure;Samples;Min_cycle;Max_cycle;Signal;HPM_P1;HPM_P2
2021/04/20 00:00:15;;;;;;;35.37;25.80;;;9.80;99.90;;;;;;5094051;28;20243;-59
2021/04/20 00:02:42;;;;;;;32.13;24.20;;;9.80;99.90;;;;;;5093814;28;20200;-58
2021/04/20 00:05:12;;;;;;;35.37;26.33;;;9.80;99.90;;;;;;5093824;28;20226;-59
2021/04/20 00:07:39;;;;;;;33.30;25.30;;;9.90;99.90;;;;;;5094160;28;20274;-60
2021/04/20 00:10:10;;;;;;;33.10;25.03;;;9.90;99.90;;;;;;5093821;28;20202;-59
2021/04/20 00:12:37;;;;;;;31.47;25.20;;;9.80;99.90;;;;;;5093710;28;20185;-60
2021/04/20 00:15:07;;;;;;;33.63;25.27;;;9.80;99.90;;;;;;5094049;28;20188;-60
2021/04/20 00:17:34;;;;;;;35.93;25.80;;;9.70;99.90;;;;;;5093449;28;20192;-59
2021/04/20 00:20:01;;;;;;;34.50;26.53;;;9.60;99.90;;;;;;5093678;28;20568;-59
2021/04/20 00:22:28;;;;;;;34.10;26.10;;;9.60;99.90;;;;;;5093556;28;20200;-59
2021/04/20 00:24:55;;;;;;;35.33;25.37;;;9.60;99.90;;;;;;5093484;28;20291;-59
2021/04/20 00:27:23;;;;;;;36.83;26.93;;;9.60;99.90;;;;;;5093058;28;20206;-60
2021/04/20 00:29:50;;;;;;;34.47;26.17;;;9.60;99.90;;;;;;5093115;28;20668;-60
2021/04/20 00:32:17;;;;;;;33.50;27.10;;;9.50;99.90;;;;;;5092872;28;20206;-59
2021/04/20 00:34:44;;;;;;;34.47;26.27;;;9.60;99.90;;;;;;5092783;28;20520;-59
2021/04/20 00:37:10;;;;;;;34.33;25.83;;;9.70;99.90;;;;;;5093035;28;20235;-60
2021/04/20 00:39:38;;;;;;;33.67;26.70;;;9.70;99.90;;;;;;5092884;28;20220;-59
2021/04/20 00:42:07;;;;;;;34.23;27.00;;;9.70;99.90;;;;;;5093203;28;20323;-59
2021/04/20 00:44:35;;;;;;;36.47;26.97;;;9.70;99.90;;;;;;5093163;28;20291;-58
2021/04/20 00:47:03;;;;;;;36.70;27.53;;;9.60;99.90;;;;;;5092954;28;20301;-60
2021/04/20 00:49:31;;;;;;;36.40;27.30;;;9.50;99.90;;;;;;5092934;28;20225;-58
2021/04/20 00:51:58;;;;;;;36.83;28.00;;;9.50;99.90;;;;;;5092849;28;20204;-60
2021/04/20 00:54:26;;;;;;;38.07;29.10;;;9.60;99.90;;;;;;5093170;28;20261;-59
2021/04/20 00:56:53;;;;;;;38.60;27.47;;;9.70;99.90;;;;;;5092861;28;20208;-59
2021/04/20 00:59:20;;;;;;;37.17;27.03;;;9.70;99.90;;;;;;5092876;28;20244;-59
2021/04/20 01:01:48;;;;;;;37.27;27.47;;;9.70;99.90;;;;;;5092614;28;20303;-59
2021/04/20 01:04:17;;;;;;;37.67;27.97;;;9.60;99.90;;;;;;5092509;28;20207;-59
2021/04/20 01:06:44;;;;;;;35.93;26.63;;;9.60;99.90;;;;;;5093021;28;20291;-60
2021/04/20 01:09:12;;;;;;;38.40;26.97;;;9.60;99.90;;;;;;5092729;28;20228;-59
2021/04/20 01:11:41;;;;;;;36.70;27.47;;;9.50;99.90;;;;;;5092501;28;20210;-59
2021/04/20 01:14:08;;;;;;;40.67;28.87;;;9.60;99.90;;;;;;5092585;28;20334;-59
2021/04/20 01:16:37;;;;;;;37.67;28.30;;;9.60;99.90;;;;;;5085999;28;20201;-59
2021/04/20 01:19:06;;;;;;;42.37;29.77;;;9.40;99.90;;;;;;5071984;28;20204;-58
2021/04/20 01:21:35;;;;;;;39.53;28.60;;;9.40;99.90;;;;;;5072418;28;20279;-59
2021/04/20 01:24:14;;;;;;;42.20;28.73;;;9.40;99.90;;;;;;5072006;28;20588;-59
2021/04/20 01:26:43;;;;;;;39.20;28.90;;;9.30;99.90;;;;;;5072076;28;20181;-59
2021/04/20 01:29:10;;;;;;;39.97;28.57;;;9.20;99.90;;;;;;5072680;28;20553;-59
2021/04/20 01:31:44;;;;;;;41.03;28.80;;;9.10;99.90;;;;;;5072207;28;20203;-60
2021/04/20 01:34:11;;;;;;;40.50;29.33;;;9.10;99.90;;;;;;5072417;28;20181;-60
2021/04/20 01:36:38;;;;;;;45.57;30.53;;;8.90;99.90;;;;;;5072143;28;20674;-59
2021/04/20 01:39:08;;;;;;;44.27;29.83;;;8.80;99.90;;;;;;5086591;28;20200;-60
2021/04/20 01:41:36;;;;;;;40.67;29.20;;;8.80;99.90;;;;;;5092388;28;20282;-59
2021/04/20 01:44:04;;;;;;;43.77;29.97;;;8.70;99.90;;;;;;5092587;28;20294;-61
2021/04/20 01:46:31;;;;;;;42.03;30.10;;;8.60;99.90;;;;;;5093228;28;20254;-59
2021/04/20 01:48:58;;;;;;;41.47;28.83;;;8.60;99.90;;;;;;5096376;28;20293;-59
2021/04/20 01:51:26;;;;;;;46.23;31.60;;;8.50;99.90;;;;;;5096598;28;20314;-59
2021/04/20 01:53:54;;;;;;;40.37;29.27;;;8.50;99.90;;;;;;5096475;28;20196;-61
2021/04/20 01:56:21;;;;;;;43.60;29.30;;;8.40;99.90;;;;;;5096493;28;20199;-58
2021/04/20 01:58:50;;;;;;;43.73;29.53;;;8.40;99.90;;;;;;5096577;28;20298;-60
2021/04/20 02:01:19;;;;;;;43.20;30.47;;;8.30;99.90;;;;;;5096165;28;20250;-62
2021/04/20 02:03:49;;;;;;;40.77;29.47;;;8.30;99.90;;;;;;5096318;28;20203;-61
2021/04/20 02:06:17;;;;;;;41.33;30.53;;;8.40;99.90;;;;;;5096321;28;20204;-62
2021/04/20 02:08:45;;;;;;;44.97;31.23;;;8.30;99.90;;;;;;5096020;28;20873;-62
2021/04/20 02:11:16;;;;;;;40.70;30.13;;;8.20;99.90;;;;;;5095592;28;20282;-63
2021/04/20 02:13:44;;;;;;;44.53;31.20;;;8.20;99.90;;;;;;5096046;28;20285;-62
2021/04/20 02:16:13;;;;;;;42.70;30.23;;;8.20;99.90;;;;;;5096010;28;20668;-61
2021/04/20 02:18:44;;;;;;;44.07;30.30;;;8.10;99.90;;;;;;5095839;28;20200;-62
2021/04/20 02:21:13;;;;;;;45.63;31.37;;;8.20;99.90;;;;;;5095892;28;20212;-61
2021/04/20 02:23:42;;;;;;;46.20;32.73;;;8.10;99.90;;;;;;5096124;28;20295;-62
2021/04/20 02:26:11;;;;;;;48.47;32.67;;;8.00;99.90;;;;;;5095937;28;20228;-61
2021/04/20 02:28:38;;;;;;;49.10;33.80;;;8.00;99.90;;;;;;5096010;28;20208;-61
2021/04/20 02:31:07;;;;;;;49.10;33.10;;;7.90;99.90;;;;;;5096022;28;20212;-61
2021/04/20 02:33:36;;;;;;;45.67;31.57;;;8.00;99.90;;;;;;5095560;28;20721;-61
2021/04/20 02:36:05;;;;;;;48.03;32.30;;;8.00;99.90;;;;;;5095580;28;20531;-62
2021/04/20 02:38:32;;;;;;;48.93;32.73;;;8.00;99.90;;;;;;5095551;28;20200;-62
2021/04/20 02:41:02;;;;;;;47.93;31.30;;;8.10;99.90;;;;;;5095288;28;20256;-63
2021/04/20 02:43:30;;;;;;;45.57;31.50;;;8.20;99.90;;;;;;5095596;28;20237;-62
2021/04/20 02:45:59;;;;;;;46.50;32.00;;;8.30;99.90;;;;;;5095563;28;20294;-61
2021/04/20 02:48:29;;;;;;;46.83;31.50;;;8.20;99.90;;;;;;5095525;28;20211;-62
2021/04/20 02:50:57;;;;;;;46.23;31.60;;;8.30;99.90;;;;;;5095793;28;20283;-63
2021/04/20 02:53:26;;;;;;;45.97;31.93;;;8.20;99.90;;;;;;5095295;28;20294;-61
2021/04/20 02:55:53;;;;;;;48.60;31.83;;;8.20;99.90;;;;;;5095512;28;20204;-62
2021/04/20 02:58:22;;;;;;;46.63;31.97;;;8.20;99.90;;;;;;5094625;28;20200;-62
2021/04/20 03:00:54;;;;;;;45.17;30.93;;;8.30;99.90;;;;;;5094715;28;20717;-62
2021/04/20 03:03:22;;;;;;;42.67;30.90;;;8.30;99.90;;;;;;5094991;28;20275;-61
2021/04/20 03:05:49;;;;;;;44.17;30.93;;;8.30;99.90;;;;;;5095343;28;20200;-62
2021/04/20 03:08:18;;;;;;;40.67;29.27;;;8.30;99.90;;;;;;5095269;28;20200;-62
2021/04/20 03:10:45;;;;;;;40.53;28.67;;;8.40;99.90;;;;;;5095289;28;20854;-62
2021/04/20 03:13:13;;;;;;;42.37;29.27;;;8.50;99.90;;;;;;5095065;28;20263;-63
2021/04/20 03:15:41;;;;;;;42.47;29.00;;;8.40;99.90;;;;;;5094944;28;20793;-61
2021/04/20 03:18:08;;;;;;;40.07;29.03;;;8.50;99.90;;;;;;5095012;28;20202;-63
2021/04/20 03:20:35;;;;;;;42.30;28.20;;;8.60;99.90;;;;;;5095098;28;20212;-62
2021/04/20 03:23:03;;;;;;;40.57;30.00;;;8.60;99.90;;;;;;5094966;28;20548;-61
2021/04/20 03:25:32;;;;;;;38.50;28.27;;;8.60;99.90;;;;;;5094767;28;20291;-62
2021/04/20 03:28:00;;;;;;;38.47;27.77;;;8.60;99.90;;;;;;5094933;28;20226;-60
2021/04/20 03:30:28;;;;;;;40.50;28.70;;;8.50;99.90;;;;;;5094920;28;20234;-62
2021/04/20 03:33:03;;;;;;;42.23;28.73;;;8.50;99.90;;;;;;5094608;28;20206;-62
2021/04/20 03:35:38;;;;;;;38.00;28.27;;;8.40;99.90;;;;;;5094776;28;20275;-62
2021/04/20 03:38:12;;;;;;;40.67;27.70;;;8.40;99.90;;;;;;5094383;28;20279;-61
2021/04/20 03:40:47;;;;;;;37.63;27.40;;;8.30;99.90;;;;;;5094301;28;20280;-63
2021/04/20 03:43:18;;;;;;;38.83;28.47;;;8.30;99.90;;;;;;5094657;28;20214;-63
2021/04/20 03:45:51;;;;;;;41.23;28.37;;;8.20;99.90;;;;;;5094703;28;20588;-62
2021/04/20 03:48:22;;;;;;;40.23;29.03;;;8.20;99.90;;;;;;5094423;28;20180;-59
2021/04/20 03:50:56;;;;;;;38.60;28.03;;;8.30;99.90;;;;;;5094612;28;20180;-59
2021/04/20 03:53:25;;;;;;;41.70;29.10;;;8.30;99.90;;;;;;5094477;28;20227;-59
2021/04/20 03:55:54;;;;;;;40.93;29.23;;;8.30;99.90;;;;;;5094118;28;20598;-61
2021/04/20 03:58:23;;;;;;;41.33;29.07;;;8.30;99.90;;;;;;5094731;28;20192;-59
2021/04/20 04:00:52;;;;;;;38.90;28.77;;;8.20;99.90;;;;;;5094376;28;20696;-59
2021/04/20 04:03:25;;;;;;;42.40;29.83;;;8.20;99.90;;;;;;5094065;28;20207;-60
2021/04/20 04:05:53;;;;;;;44.60;30.93;;;8.20;99.90;;;;;;5094236;28;20185;-60
2021/04/20 04:08:21;;;;;;;43.73;31.73;;;8.20;99.90;;;;;;5094204;28;20202;-60
2021/04/20 04:10:51;;;;;;;43.23;31.00;;;8.10;99.90;;;;;;5093640;28;20640;-59
2021/04/20 04:13:24;;;;;;;41.47;30.70;;;8.10;99.90;;;;;;5093764;28;20625;-60
2021/04/20 04:15:55;;;;;;;40.73;28.97;;;8.10;99.90;;;;;;5094098;28;20598;-59
2021/04/20 04:18:24;;;;;;;38.57;28.17;;;8.30;99.90;;;;;;5093911;28;20191;-60
2021/04/20 04:20:51;;;;;;;40.10;28.67;;;8.50;99.90;;;;;;5093205;28;20817;-59
2021/04/20 04:23:22;;;;;;;38.67;27.33;;;8.40;99.90;;;;;;5093793;28;20624;-59
2021/04/20 04:25:53;;;;;;;42.40;27.60;;;8.50;99.90;;;;;;5093345;28;20275;-60
2021/04/20 04:28:23;;;;;;;37.47;26.93;;;8.50;99.90;;;;;;5093750;28;20616;-59
2021/04/20 04:30:51;;;;;;;38.53;27.60;;;8.60;99.90;;;;;;5093651;28;20617;-59
2021/04/20 04:33:19;;;;;;;38.67;27.23;;;8.50;99.90;;;;;;5093223;28;20775;-59
2021/04/20 04:35:48;;;;;;;39.83;27.53;;;8.60;99.90;;;;;;5092303;28;20200;-60
2021/04/20 04:38:16;;;;;;;38.47;26.60;;;8.70;99.90;;;;;;5093265;28;20569;-60
2021/04/20 04:40:44;;;;;;;35.20;25.90;;;8.80;99.90;;;;;;5093064;28;20220;-59
2021/04/20 04:43:12;;;;;;;38.17;26.17;;;8.70;99.90;;;;;;5093211;28;20287;-60
2021/04/20 04:45:40;;;;;;;34.47;25.37;;;8.70;99.90;;;;;;5084026;28;20203;-59
2021/04/20 04:48:09;;;;;;;36.37;26.07;;;8.70;99.90;;;;;;5072707;28;20239;-60
2021/04/20 04:50:40;;;;;;;38.10;25.43;;;8.80;99.90;;;;;;5073011;28;20204;-62
2021/04/20 04:53:07;;;;;;;35.10;25.33;;;9.00;99.90;;;;;;5072816;28;20213;-60
2021/04/20 04:55:34;;;;;;;35.47;24.90;;;9.10;99.90;;;;;;5075092;28;20664;-59
2021/04/20 04:58:02;;;;;;;34.63;24.40;;;9.20;99.90;;;;;;5080957;28;20192;-61
2021/04/20 05:00:31;;;;;;;34.07;25.53;;;9.20;99.90;;;;;;5072322;28;20231;-60
2021/04/20 05:03:00;;;;;;;34.90;25.10;;;9.20;99.90;;;;;;5078849;28;20189;-59
2021/04/20 05:05:29;;;;;;;34.13;24.50;;;9.30;99.90;;;;;;5073623;28;20196;-59
2021/04/20 05:07:59;;;;;;;34.23;25.60;;;9.30;99.90;;;;;;5072414;28;20278;-59
2021/04/20 05:10:26;;;;;;;31.93;24.40;;;9.30;99.90;;;;;;5085434;28;20211;-59
2021/04/20 05:12:54;;;;;;;33.50;24.43;;;9.30;99.90;;;;;;5088979;28;20267;-59
2021/04/20 05:15:23;;;;;;;32.73;24.50;;;9.20;99.90;;;;;;5086098;28;20603;-60
2021/04/20 05:17:50;;;;;;;32.57;23.80;;;9.20;99.90;;;;;;5071619;28;20196;-60
2021/04/20 05:20:20;;;;;;;32.47;23.50;;;9.20;99.90;;;;;;5069366;28;20314;-60
2021/04/20 05:22:48;;;;;;;31.97;23.70;;;9.30;99.90;;;;;;5068978;28;20293;-60
2021/04/20 05:25:18;;;;;;;31.73;23.17;;;9.40;99.90;;;;;;5068802;28;20207;-59
2021/04/20 05:27:50;;;;;;;33.20;23.90;;;9.50;99.90;;;;;;5069036;28;20185;-60
2021/04/20 05:30:18;;;;;;;29.70;22.23;;;9.50;99.90;;;;;;5068491;28;20205;-60
2021/04/20 05:32:49;;;;;;;30.70;21.70;;;9.50;99.90;;;;;;5068241;28;20898;-58
2021/04/20 05:35:16;;;;;;;28.13;20.27;;;9.60;99.90;;;;;;5080535;28;20576;-60
2021/04/20 05:37:46;;;;;;;27.53;19.90;;;9.80;99.90;;;;;;5088784;28;20220;-62
2021/04/20 05:40:15;;;;;;;29.00;20.57;;;10.00;99.90;;;;;;5088189;28;20251;-60
2021/04/20 05:42:42;;;;;;;27.33;20.70;;;10.10;99.90;;;;;;5088817;28;20207;-59
2021/04/20 05:45:11;;;;;;;23.00;18.43;;;10.20;99.90;;;;;;5088348;28;20644;-59
2021/04/20 05:47:39;;;;;;;21.87;17.70;;;10.30;99.90;;;;;;5088275;28;20257;-60
2021/04/20 05:50:07;;;;;;;25.43;18.00;;;10.40;99.90;;;;;;5088729;28;20291;-61
2021/04/20 05:52:35;;;;;;;23.20;17.60;;;10.40;99.90;;;;;;5088436;28;20204;-63
2021/04/20 05:55:04;;;;;;;23.33;18.47;;;10.40;99.90;;;;;;5087636;28;20208;-61
2021/04/20 05:57:31;;;;;;;29.53;21.37;;;10.50;99.90;;;;;;5087685;28;20664;-57
2021/04/20 05:59:59;;;;;;;28.67;20.17;;;10.60;99.90;;;;;;5087457;28;20200;-58
2021/04/20 06:02:30;;;;;;;23.00;18.93;;;10.70;99.90;;;;;;5087908;28;20232;-60
2021/04/20 06:05:00;;;;;;;21.80;17.83;;;10.60;99.90;;;;;;5088156;28;20184;-59
2021/04/20 06:07:28;;;;;;;21.77;16.77;;;10.60;99.90;;;;;;5087536;28;20645;-62
2021/04/20 06:09:55;;;;;;;26.50;17.97;;;10.40;99.90;;;;;;5086610;28;20654;-61
2021/04/20 06:12:23;;;;;;;23.47;18.20;;;10.40;99.90;;;;;;5083549;28;20768;-62
2021/04/20 06:14:51;;;;;;;23.30;17.73;;;10.20;99.90;;;;;;5087459;28;20231;-62
2021/04/20 06:17:18;;;;;;;24.20;16.87;;;10.20;99.90;;;;;;5087850;28;20243;-61
2021/04/20 06:19:45;;;;;;;20.93;15.30;;;10.20;99.90;;;;;;5087746;28;20208;-62
2021/04/20 06:22:17;;;;;;;23.93;16.57;;;10.30;99.90;;;;;;5088144;28;20206;-58
2021/04/20 06:24:45;;;;;;;26.23;17.10;;;10.40;99.90;;;;;;5088136;28;20184;-61
2021/04/20 06:27:14;;;;;;;21.67;14.70;;;10.60;99.90;;;;;;5087718;28;20307;-60
2021/04/20 06:29:42;;;;;;;24.60;16.80;;;10.70;99.90;;;;;;5087592;28;20211;-60
2021/04/20 06:32:10;;;;;;;21.47;15.40;;;10.80;99.90;;;;;;5087523;28;20702;-65
2021/04/20 06:34:38;;;;;;;20.57;15.47;;;11.00;99.90;;;;;;5089406;28;20200;-62
2021/04/20 06:37:08;;;;;;;19.57;14.73;;;11.10;99.90;;;;;;5091639;28;20300;-67
2021/04/20 06:39:36;;;;;;;20.80;14.40;;;11.10;99.90;;;;;;5091358;28;20188;-67
2021/04/20 06:42:06;;;;;;;21.33;14.53;;;11.10;99.90;;;;;;5091285;28;20227;-65
2021/04/20 06:44:41;;;;;;;20.33;15.03;;;11.10;99.90;;;;;;5091509;28;20215;-65
2021/04/20 06:47:17;;;;;;;17.30;14.17;;;11.20;99.90;;;;;;5091448;28;20212;-60
2021/04/20 06:49:46;;;;;;;18.23;13.63;;;11.20;99.90;;;;;;5091691;28;20188;-61
2021/04/20 06:52:19;;;;;;;18.73;12.63;;;11.20;99.90;;;;;;5091802;28;20246;-62
2021/04/20 06:54:51;;;;;;;19.80;14.17;;;11.20;99.90;;;;;;5092333;28;20231;-61
2021/04/20 06:57:28;;;;;;;21.97;13.40;;;11.40;99.90;;;;;;5090656;28;20629;-63
2021/04/20 07:00:03;;;;;;;16.87;12.47;;;11.40;99.90;;;;;;5091787;28;20216;-62
2021/04/20 07:02:47;;;;;;;16.50;12.40;;;11.60;99.90;;;;;;5091847;28;20595;-65
2021/04/20 07:05:20;;;;;;;16.40;12.20;;;11.70;99.90;;;;;;5091815;28;20238;-66
2021/04/20 07:08:09;;;;;;;17.13;12.53;;;11.80;99.90;;;;;;5091841;28;20234;-66
2021/04/20 07:10:38;;;;;;;16.10;11.60;;;11.80;99.90;;;;;;5092156;28;20259;-66
2021/04/20 07:13:10;;;;;;;14.17;11.50;;;11.80;99.90;;;;;;5091118;28;20609;-62
2021/04/20 07:15:39;;;;;;;14.10;11.30;;;11.80;99.90;;;;;;5091169;28;20815;-60
2021/04/20 07:18:41;;;;;;;17.83;11.23;;;11.90;99.90;;;;;;5091656;28;20228;-61
2021/04/20 07:21:22;;;;;;;16.60;10.43;;;12.00;99.90;;;;;;5090779;28;20219;-62
2021/04/20 07:24:14;;;;;;;16.33;10.40;;;12.20;99.90;;;;;;5090342;28;20267;-62
2021/04/20 07:26:53;;;;;;;13.37;9.73;;;12.40;99.90;;;;;;5089829;28;20187;-60
2021/04/20 07:29:38;;;;;;;14.13;10.60;;;12.70;99.90;;;;;;5090536;28;20283;-61
2021/04/20 07:32:20;;;;;;;13.90;9.40;;;13.10;99.90;;;;;;5090662;28;20695;-62
2021/04/20 07:35:10;;;;;;;13.37;9.40;;;13.20;99.90;;;;;;5091366;28;20188;-62
2021/04/20 07:37:41;;;;;;;13.30;9.47;;;13.40;99.90;;;;;;5091225;28;20223;-61
2021/04/20 07:40:23;;;;;;;14.95;10.18;;;13.50;99.90;;;;;;5091099;28;20599;-64
2021/04/20 07:43:00;;;;;;;12.60;9.35;;;13.60;99.90;;;;;;5090725;28;20237;-61
2021/04/20 07:45:35;;;;;;;12.25;8.85;;;13.70;99.90;;;;;;5090385;28;20958;-59
2021/04/20 07:48:09;;;;;;;12.23;9.48;;;13.70;99.90;;;;;;5090901;28;20272;-59
2021/04/20 07:50:44;;;;;;;12.15;9.05;;;13.70;99.90;;;;;;5091107;28;20611;-59
2021/04/20 07:53:19;;;;;;;12.25;9.13;;;13.90;99.90;;;;;;5090751;28;20594;-59
2021/04/20 07:55:52;;;;;;;12.43;8.63;;;14.10;99.90;;;;;;5090251;28;20739;-59
2021/04/20 07:58:21;;;;;;;9.13;7.38;;;14.20;99.90;;;;;;5090609;28;20279;-60
2021/04/20 08:00:56;;;;;;;13.90;9.30;;;14.00;99.90;;;;;;5092713;28;20255;-60
2021/04/20 08:03:26;;;;;;;11.45;8.13;;;14.10;99.90;;;;;;5095778;28;20227;-58
2021/04/20 08:05:58;;;;;;;13.23;8.05;;;14.30;99.90;;;;;;5093493;28;20234;-62
2021/04/20 08:08:31;;;;;;;10.80;8.05;;;14.40;99.90;;;;;;5091067;28;20188;-59
2021/04/20 08:11:03;;;;;;;13.48;8.60;;;14.50;99.90;;;;;;5090332;28;20267;-59
2021/04/20 08:13:35;;;;;;;12.98;8.20;;;14.50;99.90;;;;;;5090369;28;20254;-59
2021/04/20 08:16:09;;;;;;;11.68;7.88;;;14.50;99.90;;;;;;5090534;28;20565;-60
2021/04/20 08:18:44;;;;;;;10.32;8.05;;;14.70;99.90;;;;;;5090342;28;20183;-59
2021/04/20 08:21:14;;;;;;;9.90;8.32;;;14.80;99.90;;;;;;5090476;28;20210;-59
2021/04/20 08:23:48;;;;;;;12.27;8.07;;;14.70;99.90;;;;;;5090416;28;20282;-59
2021/04/20 08:26:21;;;;;;;11.25;7.93;;;14.60;99.90;;;;;;5089481;28;20547;-62
2021/04/20 08:28:55;;;;;;;11.82;7.93;;;14.60;99.90;;;;;;5079989;28;20284;-61
2021/04/20 08:31:31;;;;;;;10.98;7.60;;;14.20;99.90;;;;;;5079158;28;20295;-58
2021/04/20 08:34:17;;;;;;;9.73;7.00;;;14.00;99.90;;;;;;5077884;28;20242;-57
2021/04/20 08:37:10;;;;;;;10.57;7.45;;;13.90;99.90;;;;;;5079209;28;20185;-60
2021/04/20 08:39:41;;;;;;;11.20;7.63;;;13.80;99.90;;;;;;5069808;28;20231;-61
2021/04/20 08:42:16;;;;;;;11.70;7.70;;;13.70;99.90;;;;;;5069449;28;20304;-60
2021/04/20 08:44:51;;;;;;;9.87;6.50;;;13.70;99.90;;;;;;5081964;28;20192;-59
2021/04/20 08:47:26;;;;;;;9.52;6.55;;;13.60;99.90;;;;;;5089537;28;20187;-60
2021/04/20 08:50:00;;;;;;;16.20;7.67;;;13.40;99.90;;;;;;5089501;28;20561;-61
2021/04/20 08:52:42;;;;;;;10.57;6.87;;;13.20;99.90;;;;;;5089792;28;20184;-60
2021/04/20 08:55:30;;;;;;;11.40;7.73;;;13.00;99.90;;;;;;5089353;28;20190;-59
2021/04/20 08:58:24;;;;;;;9.83;7.40;;;12.90;99.90;;;;;;5089276;28;20220;-59
2021/04/20 09:01:02;;;;;;;8.47;7.10;;;12.70;99.90;;;;;;5089928;28;20204;-59
2021/04/20 09:03:33;;;;;;;13.83;8.17;;;12.70;99.90;;;;;;5089354;28;20489;-61
2021/04/20 09:06:04;;;;;;;11.23;6.70;;;12.70;99.90;;;;;;5089897;28;20189;-59
2021/04/20 09:08:36;;;;;;;9.53;7.43;;;12.80;99.90;;;;;;5089875;28;20185;-61
2021/04/20 09:11:11;;;;;;;9.65;8.35;;;12.90;99.90;;;;;;5089647;28;20321;-60
2021/04/20 09:13:55;;;;;;;10.73;7.77;;;13.10;99.90;;;;;;5089188;28;20326;-60
2021/04/20 09:16:29;;;;;;;10.60;8.63;;;13.30;99.90;;;;;;5089557;28;20571;-59
2021/04/20 09:19:00;;;;;;;9.90;8.48;;;13.30;99.90;;;;;;5089883;28;20184;-61
2021/04/20 09:21:34;;;;;;;10.57;7.82;;;13.40;99.90;;;;;;5089365;28;20273;-59
2021/04/20 09:24:10;;;;;;;11.23;7.83;;;13.60;99.90;;;;;;5088964;28;20183;-59
2021/04/20 09:27:03;;;;;;;11.93;8.20;;;13.60;99.90;;;;;;5089401;28;20189;-60
2021/04/20 09:29:33;;;;;;;9.52;7.85;;;13.60;99.90;;;;;;5089447;28;20229;-61
2021/04/20 09:32:04;;;;;;;10.40;7.35;;;13.60;99.90;;;;;;5089241;28;20678;-61
2021/04/20 09:34:35;;;;;;;11.48;7.38;;;13.60;99.90;;;;;;5089260;28;20206;-60
2021/04/20 09:37:03;;;;;;;9.83;6.70;;;13.70;99.90;;;;;;5089252;28;20193;-63
2021/04/20 09:39:38;;;;;;;13.73;7.22;;;13.80;99.90;;;;;;5089340;28;20287;-60
2021/04/20 09:42:08;;;;;;;8.63;6.47;;;13.80;99.90;;;;;;5089018;28;20214;-61
2021/04/20 09:44:50;;;;;;;10.13;6.50;;;13.90;99.90;;;;;;5089189;28;20192;-59
2021/04/20 09:47:47;;;;;;;10.00;6.57;;;14.10;99.90;;;;;;5077701;28;20253;-60
2021/04/20 09:50:22;;;;;;;10.50;6.75;;;14.20;99.90;;;;;;5069088;28;20209;-63
2021/04/20 09:53:02;;;;;;;9.38;7.00;;;14.30;99.90;;;;;;5069153;28;20189;-60
2021/04/20 09:55:35;;;;;;;12.00;6.95;;;14.30;99.90;;;;;;5069097;28;20192;-61
2021/04/20 09:58:04;;;;;;;8.32;7.32;;;14.30;99.90;;;;;;5069191;28;20196;-60
2021/04/20 10:00:32;;;;;;;11.70;6.95;;;14.50;99.90;;;;;;5068447;28;20299;-60
2021/04/20 10:03:21;;;;;;;11.40;7.50;;;14.50;99.90;;;;;;5068935;28;20262;-61
2021/04/20 10:06:08;;;;;;;9.55;6.93;;;14.50;99.90;;;;;;5068749;28;20238;-62
2021/04/20 10:08:48;;;;;;;9.15;6.28;;;14.50;99.90;;;;;;5071297;28;20258;-63
2021/04/20 10:11:24;;;;;;;10.35;6.18;;;14.60;99.90;;;;;;5072394;28;20712;-62
2021/04/20 10:14:05;;;;;;;9.55;6.85;;;14.80;99.90;;;;;;5072642;28;20299;-62
2021/04/20 10:16:40;;;;;;;14.25;7.00;;;14.90;99.90;;;;;;5072867;28;20579;-61
2021/04/20 10:19:20;;;;;;;10.15;7.68;;;14.90;99.90;;;;;;5072551;28;20235;-62
2021/04/20 10:22:00;;;;;;;8.07;6.55;;;14.90;99.90;;;;;;5072654;28;20212;-60
2021/04/20 10:24:30;;;;;;;8.57;6.03;;;15.00;99.90;;;;;;5072392;28;20212;-62
2021/04/20 10:27:05;;;;;;;10.10;6.53;;;15.00;99.90;;;;;;5071896;28;20276;-62
2021/04/20 10:29:35;;;;;;;10.13;6.65;;;14.90;99.90;;;;;;5072587;28;20208;-60
2021/04/20 10:32:07;;;;;;;9.70;6.40;;;15.00;99.90;;;;;;5071931;28;20211;-59
2021/04/20 10:34:35;;;;;;;9.32;7.00;;;15.10;99.90;;;;;;5072178;28;20193;-60
2021/04/20 10:37:03;;;;;;;9.45;6.22;;;15.20;99.90;;;;;;5072205;28;20631;-59
2021/04/20 10:39:31;;;;;;;9.32;6.40;;;15.40;99.90;;;;;;5072284;28;20197;-59
2021/04/20 10:41:59;;;;;;;7.40;6.45;;;15.40;99.90;;;;;;5071850;28;20673;-60
2021/04/20 10:44:31;;;;;;;8.98;6.82;;;15.40;99.90;;;;;;5081851;28;20606;-59
2021/04/20 10:47:00;;;;;;;8.75;6.10;;;15.10;99.90;;;;;;5092314;28;20196;-58
2021/04/20 10:49:28;;;;;;;8.68;6.20;;;15.10;99.90;;;;;;5092087;28;20200;-59
2021/04/20 10:51:58;;;;;;;9.98;6.03;;;15.30;99.90;;;;;;5092502;28;20200;-60
2021/04/20 10:54:31;;;;;;;9.27;6.43;;;15.40;99.90;;;;;;5091931;28;20211;-59
2021/04/20 10:57:01;;;;;;;8.45;7.03;;;15.50;99.90;;;;;;5091772;28;20218;-60
2021/04/20 10:59:30;;;;;;;9.93;7.30;;;15.50;99.90;;;;;;5091889;28;20293;-59
2021/04/20 11:02:01;;;;;;;10.98;7.10;;;15.60;99.90;;;;;;5091446;28;20224;-59
2021/04/20 11:04:32;;;;;;;10.85;8.27;;;15.70;99.90;;;;;;5092039;28;20184;-59
2021/04/20 11:07:19;;;;;;;10.02;7.57;;;15.70;99.90;;;;;;5092038;28;20241;-60
2021/04/20 11:09:47;;;;;;;9.68;7.28;;;15.80;99.90;;;;;;5092062;28;20686;-60
2021/04/20 11:12:17;;;;;;;11.25;8.25;;;15.80;99.90;;;;;;5091860;28;20291;-60
2021/04/20 11:14:46;;;;;;;8.52;7.00;;;15.80;99.90;;;;;;5091785;28;20267;-60
2021/04/20 11:17:21;;;;;;;9.90;7.00;;;15.90;99.90;;;;;;5091565;28;20679;-60
2021/04/20 11:19:52;;;;;;;10.95;7.47;;;15.90;99.90;;;;;;5090940;28;20698;-59
2021/04/20 11:22:23;;;;;;;10.68;7.05;;;16.00;99.90;;;;;;5091758;28;20236;-59
2021/04/20 11:24:58;;;;;;;6.75;6.05;;;16.00;99.90;;;;;;5091775;28;20234;-59
2021/04/20 11:27:30;;;;;;;8.25;5.75;;;16.00;99.90;;;;;;5088031;28;20276;-58
2021/04/20 11:30:03;;;;;;;10.00;6.30;;;16.10;99.90;;;;;;5104074;28;20273;-58
2021/04/20 11:32:36;;;;;;;8.55;6.80;;;16.10;99.90;;;;;;5111124;28;20179;-58
2021/04/20 11:35:13;;;;;;;8.50;6.55;;;16.10;99.90;;;;;;5111551;28;20198;-62
2021/04/20 11:37:41;;;;;;;8.45;6.50;;;16.10;99.90;;;;;;5111515;28;20274;-60
2021/04/20 11:40:15;;;;;;;8.93;6.97;;;16.10;99.90;;;;;;5111354;28;20744;-59
2021/04/20 11:42:47;;;;;;;8.40;7.10;;;16.20;99.90;;;;;;5111091;28;20244;-58
2021/04/20 11:45:17;;;;;;;8.45;6.72;;;16.30;99.90;;;;;;5094385;28;20220;-59
2021/04/20 11:47:58;;;;;;;9.52;8.45;;;16.30;99.90;;;;;;5091040;28;20307;-59
2021/04/20 11:50:29;;;;;;;7.38;6.30;;;16.30;99.90;;;;;;5091043;28;20190;-59
2021/04/20 11:53:00;;;;;;;7.40;6.00;;;16.30;99.90;;;;;;5091892;28;20181;-59
2021/04/20 11:55:33;;;;;;;8.80;6.22;;;16.40;99.90;;;;;;5096665;28;20246;-59
2021/04/20 11:58:10;;;;;;;7.82;5.95;;;16.50;99.90;;;;;;5094034;28;20257;-59
2021/04/20 12:00:40;;;;;;;9.73;6.22;;;16.60;99.90;;;;;;5090738;28;20278;-59
2021/04/20 12:03:13;;;;;;;10.88;6.25;;;16.80;99.90;;;;;;5090618;28;20283;-59
2021/04/20 12:05:42;;;;;;;7.50;6.32;;;16.80;99.90;;;;;;5090593;28;20191;-58
2021/04/20 12:08:14;;;;;;;9.65;6.13;;;16.80;99.90;;;;;;5090820;28;20228;-58
2021/04/20 12:10:42;;;;;;;9.55;6.13;;;16.70;99.90;;;;;;5089755;28;20734;-58
2021/04/20 12:13:31;;;;;;;7.82;5.40;;;16.70;99.90;;;;;;5089853;28;20769;-58
2021/04/20 12:16:01;;;;;;;9.00;5.78;;;16.60;99.90;;;;;;5090141;28;20618;-59
2021/04/20 12:18:29;;;;;;;6.35;5.75;;;16.50;99.90;;;;;;5090594;28;20244;-58
2021/04/20 12:21:01;;;;;;;8.65;5.72;;;16.60;99.90;;;;;;5090383;28;20579;-59
2021/04/20 12:23:31;;;;;;;9.00;6.00;;;16.70;99.90;;;;;;5090510;28;20261;-58
2021/04/20 12:26:00;;;;;;;9.15;6.20;;;16.70;99.90;;;;;;5090532;28;20397;-59
2021/04/20 12:28:31;;;;;;;6.97;6.05;;;16.70;99.90;;;;;;5090099;28;20299;-58
2021/04/20 12:30:59;;;;;;;8.20;5.85;;;16.70;99.90;;;;;;5089435;28;20262;-57
2021/04/20 12:33:27;;;;;;;12.35;6.90;;;16.70;99.90;;;;;;5089905;28;20208;-58
2021/04/20 12:35:55;;;;;;;7.38;5.80;;;16.70;99.90;;;;;;5089993;28;20249;-59
2021/04/20 12:38:25;;;;;;;10.57;6.82;;;16.80;99.90;;;;;;5090151;28;20218;-58
2021/04/20 12:40:55;;;;;;;10.25;6.82;;;16.70;99.90;;;;;;5089967;28;20705;-59
2021/04/20 12:43:25;;;;;;;8.02;5.72;;;16.80;99.90;;;;;;5090385;28;20557;-60
2021/04/20 12:46:02;;;;;;;8.75;5.75;;;16.70;99.90;;;;;;5089728;28;20204;-59
2021/04/20 12:48:31;;;;;;;12.10;7.10;;;16.80;99.90;;;;;;5089721;28;20701;-59
2021/04/20 12:50:58;;;;;;;8.00;6.97;;;16.80;99.90;;;;;;5090073;28;20207;-60
2021/04/20 12:53:28;;;;;;;8.15;6.88;;;16.80;99.90;;;;;;5089904;28;20208;-59
2021/04/20 12:55:56;;;;;;;9.60;7.47;;;16.80;99.90;;;;;;5089346;28;20709;-60
2021/04/20 12:58:26;;;;;;;8.13;7.15;;;16.90;99.90;;;;;;5089509;28;20206;-60